Aviation Discussion


.AVIATION /01Z SUNDAY THROUGH THURSDAY/...
VFR CONDS XPCTD TNGT AND SUN. MVFR VSBYS LIKELY AT CHO/MRB...MIFG
AT IAD.

UPPER DISTURBANCE PASSES OVER SUNDAY NIGHT-MONDAY...BUT VFR 
CONDITIONS SHOULD PREVAIL AND ANY ISOLATED SHOWER SHOULD BE LIGHT. 
TUESDAY MORNING WILL PROBABLY REPRESENT THE BETTER OPPORTUNITY FOR 
MORNING BR AT MRB/CHO AS SKIES CLEAR. ANY DIURNAL STORMS TUESDAY 
AFTERNOON LIKELY STAY WEST OF TERMINALS.

 

Terminal Aviation Forecasts

TAFBWI (View previous versions )
KBWI 300534Z 3006/3112 20007KT P6SM SCT150
     FM301500 VRB03KT P6SM SCT140
     FM302000 19007KT P6SM BKN200
     FM311000 25004KT P6SM BKN080=

TAFCHO (View previous versions )
KCHO 300534Z 3006/3106 20004KT P6SM BKN110
     FM301000 00000KT 6SM BR BKN080
     FM301200 00000KT P6SM SCT080
     FM302100 19006KT P6SM BKN140=

TAFDCA (View previous versions )
KDCA 300534Z 3006/3106 20007KT P6SM SCT090
     FM301600 VRB03KT P6SM SCT090
     FM302100 20007KT P6SM BKN150=

TAFIAD (View previous versions )
KIAD 300534Z 3006/3112 19008KT P6SM SCT080
     FM301100 21004KT P6SM SCT070
     FM302000 21006KT P6SM BKN200=

TAFMRB (View previous versions )
KMRB 300534Z 3006/3106 19005KT 6SM BR SCT080
     FM300800 22005KT 5SM BR SCT080
     FM301200 00000KT P6SM FEW200
     FM302200 20005KT P6SM BKN050=

TAFMTN (View previous versions )
KMTN 300534Z 3006/3106 NIL=


Meteorological Impact Statement

ZDC MIS 02 VALID 292200-300600
...FOR ATC PLANNING PURPOSES ONLY...
OCNL MOSTLY LGT LOCAL MOD TURB FL200-450 ACRS ZDC. LOCAL LIFR 
CIG 002 VIS 1/4SM-3SM BR  FG DVLPG WV VALLEYS MAINLY AFT 06Z. 
NO OTHER SIG ICE/WX/WINDS EXPECTED...FZLVL 140-150.
..................................................................
.

Surface Map


TRACON Thunderstorm Forecast


Vertical Wind Profiles